sensor_id;sensor_type;location;lat;lon;timestamp;P1;durP1;ratioP1;P2;durP2;ratioP2
34060;SDS011;20336;-33.424;-70.638;2023-08-20T00:01:15;12.57;;;4.53;;
34060;SDS011;20336;-33.424;-70.638;2023-08-20T00:03:45;6.90;;;4.13;;
34060;SDS011;20336;-33.424;-70.638;2023-08-20T00:06:13;6.03;;;4.10;;
34060;SDS011;20336;-33.424;-70.638;2023-08-20T00:08:40;7.40;;;4.65;;
34060;SDS011;20336;-33.424;-70.638;2023-08-20T00:11:06;5.90;;;4.13;;
34060;SDS011;20336;-33.424;-70.638;2023-08-20T00:13:33;5.80;;;4.38;;
34060;SDS011;20336;-33.424;-70.638;2023-08-20T00:16:00;8.07;;;4.93;;
34060;SDS011;20336;-33.424;-70.638;2023-08-20T00:18:27;6.47;;;4.40;;
34060;SDS011;20336;-33.424;-70.638;2023-08-20T00:20:54;8.45;;;4.20;;
34060;SDS011;20336;-33.424;-70.638;2023-08-20T00:23:22;5.20;;;3.10;;
34060;SDS011;20336;-33.424;-70.638;2023-08-20T00:25:48;3.10;;;2.00;;
34060;SDS011;20336;-33.424;-70.638;2023-08-20T00:28:15;3.07;;;1.97;;
34060;SDS011;20336;-33.424;-70.638;2023-08-20T00:30:42;2.87;;;1.50;;
34060;SDS011;20336;-33.424;-70.638;2023-08-20T00:33:09;2.17;;;1.60;;
34060;SDS011;20336;-33.424;-70.638;2023-08-20T00:35:36;1.35;;;1.10;;
34060;SDS011;20336;-33.424;-70.638;2023-08-20T00:38:03;4.13;;;1.40;;
34060;SDS011;20336;-33.424;-70.638;2023-08-20T00:40:30;2.45;;;1.40;;
34060;SDS011;20336;-33.424;-70.638;2023-08-20T00:42:57;3.20;;;1.50;;
34060;SDS011;20336;-33.424;-70.638;2023-08-20T00:45:24;2.20;;;1.40;;
34060;SDS011;20336;-33.424;-70.638;2023-08-20T00:47:51;4.37;;;1.80;;
34060;SDS011;20336;-33.424;-70.638;2023-08-20T00:50:18;2.95;;;1.63;;
34060;SDS011;20336;-33.424;-70.638;2023-08-20T00:52:45;3.88;;;2.13;;
34060;SDS011;20336;-33.424;-70.638;2023-08-20T00:55:12;6.17;;;2.90;;
34060;SDS011;20336;-33.424;-70.638;2023-08-20T00:57:39;4.10;;;2.30;;
34060;SDS011;20336;-33.424;-70.638;2023-08-20T01:00:07;7.00;;;3.70;;
34060;SDS011;20336;-33.424;-70.638;2023-08-20T01:02:36;6.43;;;4.00;;
34060;SDS011;20336;-33.424;-70.638;2023-08-20T01:05:03;5.37;;;3.10;;
34060;SDS011;20336;-33.424;-70.638;2023-08-20T01:07:36;6.60;;;2.73;;
34060;SDS011;20336;-33.424;-70.638;2023-08-20T01:12:33;3.90;;;2.83;;
34060;SDS011;20336;-33.424;-70.638;2023-08-20T01:15:00;4.60;;;2.83;;
34060;SDS011;20336;-33.424;-70.638;2023-08-20T01:17:27;7.33;;;3.37;;
34060;SDS011;20336;-33.424;-70.638;2023-08-20T01:19:54;4.53;;;3.40;;
34060;SDS011;20336;-33.424;-70.638;2023-08-20T01:22:29;6.50;;;4.40;;
34060;SDS011;20336;-33.424;-70.638;2023-08-20T01:30:24;6.50;;;4.60;;
34060;SDS011;20336;-33.424;-70.638;2023-08-20T01:32:52;7.00;;;4.65;;
34060;SDS011;20336;-33.424;-70.638;2023-08-20T01:35:20;7.37;;;4.63;;
34060;SDS011;20336;-33.424;-70.638;2023-08-20T01:37:46;6.53;;;4.70;;
34060;SDS011;20336;-33.424;-70.638;2023-08-20T01:40:13;8.30;;;5.13;;
34060;SDS011;20336;-33.424;-70.638;2023-08-20T01:42:40;8.43;;;5.50;;
34060;SDS011;20336;-33.424;-70.638;2023-08-20T01:45:07;10.00;;;5.13;;
34060;SDS011;20336;-33.424;-70.638;2023-08-20T01:47:34;8.20;;;4.10;;
34060;SDS011;20336;-33.424;-70.638;2023-08-20T01:50:01;9.00;;;3.67;;
34060;SDS011;20336;-33.424;-70.638;2023-08-20T01:52:28;4.63;;;3.00;;
34060;SDS011;20336;-33.424;-70.638;2023-08-20T01:54:55;6.33;;;2.83;;
34060;SDS011;20336;-33.424;-70.638;2023-08-20T02:00:07;3.57;;;2.60;;
34060;SDS011;20336;-33.424;-70.638;2023-08-20T02:02:34;4.37;;;2.73;;
34060;SDS011;20336;-33.424;-70.638;2023-08-20T02:05:01;3.77;;;2.73;;
34060;SDS011;20336;-33.424;-70.638;2023-08-20T02:07:28;5.30;;;2.80;;
34060;SDS011;20336;-33.424;-70.638;2023-08-20T02:09:55;6.73;;;3.10;;
34060;SDS011;20336;-33.424;-70.638;2023-08-20T02:12:22;4.83;;;3.17;;
34060;SDS011;20336;-33.424;-70.638;2023-08-20T02:14:48;4.90;;;3.03;;
34060;SDS011;20336;-33.424;-70.638;2023-08-20T02:17:15;5.33;;;2.60;;
34060;SDS011;20336;-33.424;-70.638;2023-08-20T02:19:42;3.77;;;2.90;;
34060;SDS011;20336;-33.424;-70.638;2023-08-20T02:22:09;5.07;;;3.17;;
34060;SDS011;20336;-33.424;-70.638;2023-08-20T02:24:36;6.90;;;3.40;;
34060;SDS011;20336;-33.424;-70.638;2023-08-20T02:27:03;12.37;;;7.33;;
34060;SDS011;20336;-33.424;-70.638;2023-08-20T02:29:30;4.33;;;3.60;;
34060;SDS011;20336;-33.424;-70.638;2023-08-20T02:31:57;6.53;;;4.43;;
34060;SDS011;20336;-33.424;-70.638;2023-08-20T02:34:24;6.40;;;4.87;;
34060;SDS011;20336;-33.424;-70.638;2023-08-20T02:36:51;5.77;;;4.37;;
34060;SDS011;20336;-33.424;-70.638;2023-08-20T02:39:18;8.20;;;3.20;;
34060;SDS011;20336;-33.424;-70.638;2023-08-20T02:41:45;4.00;;;2.50;;
34060;SDS011;20336;-33.424;-70.638;2023-08-20T02:44:12;4.30;;;3.10;;
34060;SDS011;20336;-33.424;-70.638;2023-08-20T02:46:39;3.70;;;2.70;;
34060;SDS011;20336;-33.424;-70.638;2023-08-20T02:49:06;4.00;;;2.47;;
34060;SDS011;20336;-33.424;-70.638;2023-08-20T02:51:33;2.83;;;2.10;;
34060;SDS011;20336;-33.424;-70.638;2023-08-20T02:54:01;4.85;;;3.40;;
34060;SDS011;20336;-33.424;-70.638;2023-08-20T02:56:28;3.03;;;2.40;;
34060;SDS011;20336;-33.424;-70.638;2023-08-20T02:58:55;3.17;;;2.27;;
34060;SDS011;20336;-33.424;-70.638;2023-08-20T03:01:22;3.53;;;1.90;;
34060;SDS011;20336;-33.424;-70.638;2023-08-20T03:03:49;3.40;;;2.35;;
34060;SDS011;20336;-33.424;-70.638;2023-08-20T03:06:16;3.63;;;2.67;;
34060;SDS011;20336;-33.424;-70.638;2023-08-20T03:08:43;5.70;;;3.97;;
34060;SDS011;20336;-33.424;-70.638;2023-08-20T03:11:10;9.03;;;5.47;;
34060;SDS011;20336;-33.424;-70.638;2023-08-20T03:13:37;6.32;;;4.13;;
34060;SDS011;20336;-33.424;-70.638;2023-08-20T03:16:04;4.47;;;2.90;;
34060;SDS011;20336;-33.424;-70.638;2023-08-20T03:18:30;3.85;;;2.63;;
34060;SDS011;20336;-33.424;-70.638;2023-08-20T03:20:57;5.67;;;3.30;;
34060;SDS011;20336;-33.424;-70.638;2023-08-20T03:23:24;3.60;;;2.50;;
34060;SDS011;20336;-33.424;-70.638;2023-08-20T03:25:51;4.20;;;2.80;;
34060;SDS011;20336;-33.424;-70.638;2023-08-20T03:28:18;5.03;;;2.85;;
34060;SDS011;20336;-33.424;-70.638;2023-08-20T03:30:45;3.20;;;2.00;;
34060;SDS011;20336;-33.424;-70.638;2023-08-20T03:33:12;3.47;;;1.70;;
34060;SDS011;20336;-33.424;-70.638;2023-08-20T03:35:39;3.73;;;2.00;;
34060;SDS011;20336;-33.424;-70.638;2023-08-20T03:38:06;3.47;;;1.73;;
34060;SDS011;20336;-33.424;-70.638;2023-08-20T03:40:33;4.83;;;1.90;;
34060;SDS011;20336;-33.424;-70.638;2023-08-20T03:43:00;4.47;;;2.63;;
34060;SDS011;20336;-33.424;-70.638;2023-08-20T03:45:27;5.30;;;3.63;;
34060;SDS011;20336;-33.424;-70.638;2023-08-20T03:47:55;5.40;;;3.67;;
34060;SDS011;20336;-33.424;-70.638;2023-08-20T03:50:22;5.10;;;3.20;;
34060;SDS011;20336;-33.424;-70.638;2023-08-20T03:52:49;4.40;;;2.80;;
34060;SDS011;20336;-33.424;-70.638;2023-08-20T03:55:16;4.67;;;2.73;;
34060;SDS011;20336;-33.424;-70.638;2023-08-20T03:57:43;4.23;;;3.13;;
34060;SDS011;20336;-33.424;-70.638;2023-08-20T04:00:10;7.23;;;4.73;;
34060;SDS011;20336;-33.424;-70.638;2023-08-20T04:02:37;161.97;;;11.73;;
34060;SDS011;20336;-33.424;-70.638;2023-08-20T04:05:04;5.63;;;3.60;;
34060;SDS011;20336;-33.424;-70.638;2023-08-20T04:07:31;6.63;;;3.87;;
34060;SDS011;20336;-33.424;-70.638;2023-08-20T04:09:58;7.63;;;4.00;;
34060;SDS011;20336;-33.424;-70.638;2023-08-20T04:12:25;7.43;;;4.10;;
34060;SDS011;20336;-33.424;-70.638;2023-08-20T04:14:51;6.07;;;4.00;;
34060;SDS011;20336;-33.424;-70.638;2023-08-20T04:17:18;8.07;;;4.53;;
34060;SDS011;20336;-33.424;-70.638;2023-08-20T04:19:45;5.00;;;3.53;;
34060;SDS011;20336;-33.424;-70.638;2023-08-20T04:22:12;4.80;;;3.17;;
34060;SDS011;20336;-33.424;-70.638;2023-08-20T04:24:39;3.70;;;2.70;;
34060;SDS011;20336;-33.424;-70.638;2023-08-20T04:27:06;3.47;;;2.50;;
34060;SDS011;20336;-33.424;-70.638;2023-08-20T04:29:32;6.60;;;3.23;;
34060;SDS011;20336;-33.424;-70.638;2023-08-20T04:31:59;4.47;;;3.00;;
34060;SDS011;20336;-33.424;-70.638;2023-08-20T04:34:26;7.93;;;4.00;;
34060;SDS011;20336;-33.424;-70.638;2023-08-20T04:36:53;6.20;;;4.03;;
34060;SDS011;20336;-33.424;-70.638;2023-08-20T04:39:20;6.22;;;4.28;;
34060;SDS011;20336;-33.424;-70.638;2023-08-20T04:41:47;7.78;;;4.45;;
34060;SDS011;20336;-33.424;-70.638;2023-08-20T04:44:14;6.50;;;3.70;;
34060;SDS011;20336;-33.424;-70.638;2023-08-20T04:46:41;4.35;;;3.10;;
34060;SDS011;20336;-33.424;-70.638;2023-08-20T04:49:08;4.10;;;2.65;;
34060;SDS011;20336;-33.424;-70.638;2023-08-20T04:51:36;4.90;;;2.00;;
34060;SDS011;20336;-33.424;-70.638;2023-08-20T04:54:03;4.27;;;2.17;;
34060;SDS011;20336;-33.424;-70.638;2023-08-20T04:56:30;4.27;;;2.43;;
34060;SDS011;20336;-33.424;-70.638;2023-08-20T04:58:57;3.90;;;1.83;;
34060;SDS011;20336;-33.424;-70.638;2023-08-20T05:01:24;4.70;;;3.03;;
34060;SDS011;20336;-33.424;-70.638;2023-08-20T05:03:51;4.43;;;3.13;;
34060;SDS011;20336;-33.424;-70.638;2023-08-20T05:06:21;5.93;;;4.03;;
34060;SDS011;20336;-33.424;-70.638;2023-08-20T05:08:49;4.80;;;3.43;;
34060;SDS011;20336;-33.424;-70.638;2023-08-20T05:11:15;8.47;;;5.20;;
34060;SDS011;20336;-33.424;-70.638;2023-08-20T05:13:44;8.40;;;4.87;;
34060;SDS011;20336;-33.424;-70.638;2023-08-20T05:16:10;7.70;;;4.82;;
34060;SDS011;20336;-33.424;-70.638;2023-08-20T05:18:37;4.05;;;2.83;;
34060;SDS011;20336;-33.424;-70.638;2023-08-20T05:21:04;5.00;;;4.00;;
34060;SDS011;20336;-33.424;-70.638;2023-08-20T05:23:31;6.07;;;4.57;;
34060;SDS011;20336;-33.424;-70.638;2023-08-20T05:25:58;4.57;;;2.80;;
34060;SDS011;20336;-33.424;-70.638;2023-08-20T05:28:25;1.93;;;1.50;;
34060;SDS011;20336;-33.424;-70.638;2023-08-20T05:30:55;4.50;;;2.27;;
34060;SDS011;20336;-33.424;-70.638;2023-08-20T05:33:22;2.07;;;1.57;;
34060;SDS011;20336;-33.424;-70.638;2023-08-20T05:35:49;5.90;;;2.17;;
34060;SDS011;20336;-33.424;-70.638;2023-08-20T05:38:16;4.90;;;2.40;;
34060;SDS011;20336;-33.424;-70.638;2023-08-20T05:40:43;9.43;;;5.03;;
34060;SDS011;20336;-33.424;-70.638;2023-08-20T05:43:10;13.63;;;7.90;;
34060;SDS011;20336;-33.424;-70.638;2023-08-20T05:45:37;11.33;;;7.37;;
34060;SDS011;20336;-33.424;-70.638;2023-08-20T05:48:04;14.07;;;7.97;;
34060;SDS011;20336;-33.424;-70.638;2023-08-20T05:50:30;17.47;;;8.07;;
34060;SDS011;20336;-33.424;-70.638;2023-08-20T05:52:57;13.60;;;7.80;;
34060;SDS011;20336;-33.424;-70.638;2023-08-20T05:55:24;6.07;;;4.40;;
34060;SDS011;20336;-33.424;-70.638;2023-08-20T05:57:51;6.47;;;4.70;;
34060;SDS011;20336;-33.424;-70.638;2023-08-20T06:00:18;5.33;;;3.17;;
34060;SDS011;20336;-33.424;-70.638;2023-08-20T06:02:45;4.50;;;3.13;;
34060;SDS011;20336;-33.424;-70.638;2023-08-20T06:05:11;6.53;;;3.23;;
34060;SDS011;20336;-33.424;-70.638;2023-08-20T06:07:39;5.27;;;3.83;;
34060;SDS011;20336;-33.424;-70.638;2023-08-20T06:10:06;5.83;;;4.77;;
34060;SDS011;20336;-33.424;-70.638;2023-08-20T06:12:33;7.77;;;4.60;;
34060;SDS011;20336;-33.424;-70.638;2023-08-20T06:15:00;4.83;;;3.50;;
34060;SDS011;20336;-33.424;-70.638;2023-08-20T06:17:27;5.07;;;3.20;;
34060;SDS011;20336;-33.424;-70.638;2023-08-20T06:19:53;6.27;;;3.20;;
34060;SDS011;20336;-33.424;-70.638;2023-08-20T06:22:20;4.43;;;3.17;;
34060;SDS011;20336;-33.424;-70.638;2023-08-20T06:24:47;9.00;;;6.33;;
34060;SDS011;20336;-33.424;-70.638;2023-08-20T06:27:14;6.00;;;4.00;;
34060;SDS011;20336;-33.424;-70.638;2023-08-20T06:29:40;5.28;;;3.20;;
34060;SDS011;20336;-33.424;-70.638;2023-08-20T06:32:07;6.63;;;4.23;;
34060;SDS011;20336;-33.424;-70.638;2023-08-20T06:34:34;8.50;;;3.23;;
34060;SDS011;20336;-33.424;-70.638;2023-08-20T06:37:01;5.40;;;3.30;;
34060;SDS011;20336;-33.424;-70.638;2023-08-20T06:39:28;8.00;;;4.77;;
34060;SDS011;20336;-33.424;-70.638;2023-08-20T06:41:55;7.27;;;5.00;;
34060;SDS011;20336;-33.424;-70.638;2023-08-20T06:44:22;9.43;;;6.03;;
34060;SDS011;20336;-33.424;-70.638;2023-08-20T06:46:49;6.53;;;4.30;;
34060;SDS011;20336;-33.424;-70.638;2023-08-20T06:49:16;6.93;;;4.23;;
34060;SDS011;20336;-33.424;-70.638;2023-08-20T06:51:42;5.37;;;3.07;;
34060;SDS011;20336;-33.424;-70.638;2023-08-20T06:54:09;3.83;;;2.90;;
34060;SDS011;20336;-33.424;-70.638;2023-08-20T06:56:36;4.43;;;3.30;;
34060;SDS011;20336;-33.424;-70.638;2023-08-20T06:59:03;4.87;;;3.33;;
34060;SDS011;20336;-33.424;-70.638;2023-08-20T07:01:30;5.75;;;3.72;;
34060;SDS011;20336;-33.424;-70.638;2023-08-20T07:03:57;5.90;;;3.57;;
34060;SDS011;20336;-33.424;-70.638;2023-08-20T07:06:24;5.13;;;3.63;;
34060;SDS011;20336;-33.424;-70.638;2023-08-20T07:08:51;3.67;;;2.90;;
34060;SDS011;20336;-33.424;-70.638;2023-08-20T07:11:18;5.47;;;3.70;;
34060;SDS011;20336;-33.424;-70.638;2023-08-20T07:13:44;5.30;;;3.30;;
34060;SDS011;20336;-33.424;-70.638;2023-08-20T07:16:11;4.60;;;3.27;;
34060;SDS011;20336;-33.424;-70.638;2023-08-20T07:18:38;4.57;;;3.33;;
34060;SDS011;20336;-33.424;-70.638;2023-08-20T07:21:05;5.07;;;3.20;;
34060;SDS011;20336;-33.424;-70.638;2023-08-20T07:23:33;4.43;;;3.20;;
34060;SDS011;20336;-33.424;-70.638;2023-08-20T07:26:06;6.43;;;3.60;;
34060;SDS011;20336;-33.424;-70.638;2023-08-20T07:28:33;6.87;;;3.00;;
34060;SDS011;20336;-33.424;-70.638;2023-08-20T07:31:19;4.17;;;2.90;;
34060;SDS011;20336;-33.424;-70.638;2023-08-20T07:33:46;5.47;;;3.50;;
34060;SDS011;20336;-33.424;-70.638;2023-08-20T07:36:13;6.03;;;3.23;;
34060;SDS011;20336;-33.424;-70.638;2023-08-20T07:38:40;6.90;;;3.20;;
34060;SDS011;20336;-33.424;-70.638;2023-08-20T07:41:08;4.33;;;3.13;;
34060;SDS011;20336;-33.424;-70.638;2023-08-20T07:43:39;4.07;;;2.17;;
34060;SDS011;20336;-33.424;-70.638;2023-08-20T07:46:06;2.37;;;1.90;;
34060;SDS011;20336;-33.424;-70.638;2023-08-20T07:48:34;2.07;;;1.33;;
34060;SDS011;20336;-33.424;-70.638;2023-08-20T07:51:01;2.73;;;1.53;;
34060;SDS011;20336;-33.424;-70.638;2023-08-20T07:53:28;3.13;;;2.17;;
34060;SDS011;20336;-33.424;-70.638;2023-08-20T07:55:55;1.97;;;1.37;;
34060;SDS011;20336;-33.424;-70.638;2023-08-20T07:58:22;2.63;;;1.70;;
34060;SDS011;20336;-33.424;-70.638;2023-08-20T08:00:49;2.20;;;1.60;;
34060;SDS011;20336;-33.424;-70.638;2023-08-20T08:03:16;2.47;;;1.70;;
34060;SDS011;20336;-33.424;-70.638;2023-08-20T08:05:49;2.93;;;2.03;;
34060;SDS011;20336;-33.424;-70.638;2023-08-20T08:08:17;3.20;;;1.70;;
34060;SDS011;20336;-33.424;-70.638;2023-08-20T08:10:44;6.03;;;1.83;;
34060;SDS011;20336;-33.424;-70.638;2023-08-20T08:13:12;2.60;;;1.67;;
34060;SDS011;20336;-33.424;-70.638;2023-08-20T08:15:38;2.67;;;2.00;;
34060;SDS011;20336;-33.424;-70.638;2023-08-20T08:18:06;4.20;;;2.10;;
34060;SDS011;20336;-33.424;-70.638;2023-08-20T08:20:33;4.47;;;2.10;;
34060;SDS011;20336;-33.424;-70.638;2023-08-20T08:23:00;3.10;;;2.10;;
34060;SDS011;20336;-33.424;-70.638;2023-08-20T08:25:27;6.83;;;2.27;;
34060;SDS011;20336;-33.424;-70.638;2023-08-20T08:27:54;5.53;;;1.70;;
34060;SDS011;20336;-33.424;-70.638;2023-08-20T08:30:21;3.90;;;1.90;;
34060;SDS011;20336;-33.424;-70.638;2023-08-20T08:32:48;2.27;;;1.90;;
34060;SDS011;20336;-33.424;-70.638;2023-08-20T08:35:14;3.57;;;1.90;;
34060;SDS011;20336;-33.424;-70.638;2023-08-20T08:37:41;3.00;;;1.73;;
34060;SDS011;20336;-33.424;-70.638;2023-08-20T08:40:08;2.10;;;1.50;;
34060;SDS011;20336;-33.424;-70.638;2023-08-20T08:42:35;2.90;;;1.53;;
34060;SDS011;20336;-33.424;-70.638;2023-08-20T08:45:02;4.50;;;1.17;;
34060;SDS011;20336;-33.424;-70.638;2023-08-20T08:47:29;2.60;;;1.50;;
34060;SDS011;20336;-33.424;-70.638;2023-08-20T08:49:56;1.93;;;1.50;;
34060;SDS011;20336;-33.424;-70.638;2023-08-20T08:52:23;1.87;;;1.17;;
34060;SDS011;20336;-33.424;-70.638;2023-08-20T08:54:50;2.47;;;1.20;;
34060;SDS011;20336;-33.424;-70.638;2023-08-20T08:57:17;1.90;;;1.20;;
34060;SDS011;20336;-33.424;-70.638;2023-08-20T08:59:44;1.27;;;0.90;;
34060;SDS011;20336;-33.424;-70.638;2023-08-20T09:02:11;4.03;;;1.43;;
34060;SDS011;20336;-33.424;-70.638;2023-08-20T09:04:41;2.40;;;1.07;;
34060;SDS011;20336;-33.424;-70.638;2023-08-20T09:07:11;1.17;;;0.80;;
34060;SDS011;20336;-33.424;-70.638;2023-08-20T09:09:42;1.83;;;0.93;;
34060;SDS011;20336;-33.424;-70.638;2023-08-20T09:12:18;2.50;;;1.40;;
34060;SDS011;20336;-33.424;-70.638;2023-08-20T09:14:46;1.33;;;1.10;;
34060;SDS011;20336;-33.424;-70.638;2023-08-20T09:17:13;1.70;;;1.30;;
34060;SDS011;20336;-33.424;-70.638;2023-08-20T09:19:40;2.13;;;1.40;;
34060;SDS011;20336;-33.424;-70.638;2023-08-20T09:22:11;3.73;;;1.80;;
34060;SDS011;20336;-33.424;-70.638;2023-08-20T09:24:42;4.47;;;1.50;;
34060;SDS011;20336;-33.424;-70.638;2023-08-20T09:27:08;4.57;;;1.40;;
34060;SDS011;20336;-33.424;-70.638;2023-08-20T09:32:18;1.40;;;1.23;;
34060;SDS011;20336;-33.424;-70.638;2023-08-20T09:34:45;1.83;;;1.43;;
34060;SDS011;20336;-33.424;-70.638;2023-08-20T09:37:14;3.10;;;1.63;;
34060;SDS011;20336;-33.424;-70.638;2023-08-20T09:39:41;3.27;;;1.30;;
34060;SDS011;20336;-33.424;-70.638;2023-08-20T09:42:09;3.37;;;1.70;;
34060;SDS011;20336;-33.424;-70.638;2023-08-20T09:44:36;2.53;;;1.60;;
34060;SDS011;20336;-33.424;-70.638;2023-08-20T09:47:06;2.57;;;1.30;;
34060;SDS011;20336;-33.424;-70.638;2023-08-20T09:49:36;4.33;;;2.03;;
34060;SDS011;20336;-33.424;-70.638;2023-08-20T09:52:06;2.43;;;1.60;;
34060;SDS011;20336;-33.424;-70.638;2023-08-20T09:54:45;1.57;;;1.10;;
34060;SDS011;20336;-33.424;-70.638;2023-08-20T09:57:23;3.90;;;0.90;;
34060;SDS011;20336;-33.424;-70.638;2023-08-20T09:59:53;2.50;;;1.00;;
34060;SDS011;20336;-33.424;-70.638;2023-08-20T10:02:20;2.00;;;0.87;;
34060;SDS011;20336;-33.424;-70.638;2023-08-20T10:04:47;2.93;;;0.87;;
34060;SDS011;20336;-33.424;-70.638;2023-08-20T10:07:15;1.50;;;1.03;;
34060;SDS011;20336;-33.424;-70.638;2023-08-20T10:09:42;1.90;;;1.13;;
34060;SDS011;20336;-33.424;-70.638;2023-08-20T10:12:14;1.00;;;0.73;;
34060;SDS011;20336;-33.424;-70.638;2023-08-20T10:14:41;2.30;;;0.77;;
34060;SDS011;20336;-33.424;-70.638;2023-08-20T10:17:08;1.13;;;0.80;;
34060;SDS011;20336;-33.424;-70.638;2023-08-20T10:19:36;1.30;;;1.03;;
34060;SDS011;20336;-33.424;-70.638;2023-08-20T10:22:03;1.57;;;0.80;;
34060;SDS011;20336;-33.424;-70.638;2023-08-20T10:24:40;1.50;;;0.70;;
34060;SDS011;20336;-33.424;-70.638;2023-08-20T10:27:08;1.83;;;1.00;;
34060;SDS011;20336;-33.424;-70.638;2023-08-20T10:29:36;0.90;;;0.70;;
34060;SDS011;20336;-33.424;-70.638;2023-08-20T10:32:08;1.40;;;0.80;;
34060;SDS011;20336;-33.424;-70.638;2023-08-20T10:34:35;0.90;;;0.60;;
34060;SDS011;20336;-33.424;-70.638;2023-08-20T10:37:12;2.03;;;0.90;;
34060;SDS011;20336;-33.424;-70.638;2023-08-20T10:39:39;1.37;;;0.87;;
34060;SDS011;20336;-33.424;-70.638;2023-08-20T10:45:05;1.53;;;0.77;;
34060;SDS011;20336;-33.424;-70.638;2023-08-20T10:50:09;2.57;;;0.77;;
34060;SDS011;20336;-33.424;-70.638;2023-08-20T10:52:39;1.13;;;0.80;;
34060;SDS011;20336;-33.424;-70.638;2023-08-20T10:55:09;2.67;;;0.80;;
34060;SDS011;20336;-33.424;-70.638;2023-08-20T10:57:36;2.70;;;1.10;;
34060;SDS011;20336;-33.424;-70.638;2023-08-20T11:00:03;2.97;;;0.77;;
34060;SDS011;20336;-33.424;-70.638;2023-08-20T11:02:37;1.33;;;0.80;;
34060;SDS011;20336;-33.424;-70.638;2023-08-20T11:05:09;1.43;;;0.70;;
34060;SDS011;20336;-33.424;-70.638;2023-08-20T11:07:44;1.00;;;0.60;;
34060;SDS011;20336;-33.424;-70.638;2023-08-20T11:10:12;1.67;;;0.80;;
34060;SDS011;20336;-33.424;-70.638;2023-08-20T11:12:40;3.87;;;1.13;;
34060;SDS011;20336;-33.424;-70.638;2023-08-20T11:15:08;1.10;;;0.80;;
34060;SDS011;20336;-33.424;-70.638;2023-08-20T11:17:35;2.07;;;0.90;;
34060;SDS011;20336;-33.424;-70.638;2023-08-20T11:20:06;0.93;;;0.60;;
34060;SDS011;20336;-33.424;-70.638;2023-08-20T11:22:33;2.10;;;1.10;;
34060;SDS011;20336;-33.424;-70.638;2023-08-20T11:25:00;2.87;;;0.80;;
34060;SDS011;20336;-33.424;-70.638;2023-08-20T11:27:27;1.63;;;0.90;;
34060;SDS011;20336;-33.424;-70.638;2023-08-20T11:29:54;4.33;;;0.87;;
34060;SDS011;20336;-33.424;-70.638;2023-08-20T11:32:23;1.10;;;0.90;;
34060;SDS011;20336;-33.424;-70.638;2023-08-20T11:34:49;1.63;;;0.70;;
34060;SDS011;20336;-33.424;-70.638;2023-08-20T11:37:22;1.63;;;0.80;;
34060;SDS011;20336;-33.424;-70.638;2023-08-20T11:39:49;3.03;;;1.00;;
34060;SDS011;20336;-33.424;-70.638;2023-08-20T11:42:16;1.70;;;0.90;;
34060;SDS011;20336;-33.424;-70.638;2023-08-20T11:44:45;1.60;;;1.00;;
34060;SDS011;20336;-33.424;-70.638;2023-08-20T11:47:18;2.33;;;0.90;;
34060;SDS011;20336;-33.424;-70.638;2023-08-20T11:49:45;1.43;;;1.10;;
34060;SDS011;20336;-33.424;-70.638;2023-08-20T11:52:11;2.00;;;1.00;;
34060;SDS011;20336;-33.424;-70.638;2023-08-20T11:54:38;2.97;;;1.30;;
34060;SDS011;20336;-33.424;-70.638;2023-08-20T11:57:06;1.37;;;1.10;;
34060;SDS011;20336;-33.424;-70.638;2023-08-20T11:59:33;2.53;;;1.03;;
34060;SDS011;20336;-33.424;-70.638;2023-08-20T12:02:03;1.93;;;1.13;;
34060;SDS011;20336;-33.424;-70.638;2023-08-20T12:04:30;2.30;;;1.20;;
34060;SDS011;20336;-33.424;-70.638;2023-08-20T12:07:04;2.80;;;1.80;;
34060;SDS011;20336;-33.424;-70.638;2023-08-20T12:09:31;2.53;;;1.63;;
34060;SDS011;20336;-33.424;-70.638;2023-08-20T12:11:58;3.83;;;2.10;;
34060;SDS011;20336;-33.424;-70.638;2023-08-20T12:14:25;3.53;;;2.20;;
34060;SDS011;20336;-33.424;-70.638;2023-08-20T12:16:53;4.47;;;2.23;;
34060;SDS011;20336;-33.424;-70.638;2023-08-20T12:19:20;3.27;;;1.80;;
34060;SDS011;20336;-33.424;-70.638;2023-08-20T12:21:47;3.40;;;1.83;;
34060;SDS011;20336;-33.424;-70.638;2023-08-20T12:24:14;1.93;;;1.37;;
34060;SDS011;20336;-33.424;-70.638;2023-08-20T12:26:41;3.33;;;1.17;;
34060;SDS011;20336;-33.424;-70.638;2023-08-20T12:29:08;1.97;;;0.90;;
34060;SDS011;20336;-33.424;-70.638;2023-08-20T12:31:35;1.13;;;0.90;;
34060;SDS011;20336;-33.424;-70.638;2023-08-20T12:34:02;2.90;;;1.07;;
34060;SDS011;20336;-33.424;-70.638;2023-08-20T12:36:29;1.73;;;1.10;;
34060;SDS011;20336;-33.424;-70.638;2023-08-20T12:38:56;2.17;;;1.20;;
34060;SDS011;20336;-33.424;-70.638;2023-08-20T12:41:23;1.93;;;1.30;;
34060;SDS011;20336;-33.424;-70.638;2023-08-20T12:43:50;2.60;;;1.45;;
34060;SDS011;20336;-33.424;-70.638;2023-08-20T12:46:17;2.95;;;1.20;;
34060;SDS011;20336;-33.424;-70.638;2023-08-20T12:48:44;3.58;;;1.55;;
34060;SDS011;20336;-33.424;-70.638;2023-08-20T12:51:10;1.88;;;1.00;;
34060;SDS011;20336;-33.424;-70.638;2023-08-20T12:53:42;1.13;;;0.77;;
34060;SDS011;20336;-33.424;-70.638;2023-08-20T12:56:09;4.15;;;1.67;;
34060;SDS011;20336;-33.424;-70.638;2023-08-20T12:58:37;4.68;;;2.95;;
34060;SDS011;20336;-33.424;-70.638;2023-08-20T13:01:06;4.28;;;3.03;;
34060;SDS011;20336;-33.424;-70.638;2023-08-20T13:03:34;4.22;;;2.70;;
34060;SDS011;20336;-33.424;-70.638;2023-08-20T13:06:01;4.03;;;2.85;;
34060;SDS011;20336;-33.424;-70.638;2023-08-20T13:08:27;4.72;;;3.17;;
34060;SDS011;20336;-33.424;-70.638;2023-08-20T13:10:57;4.15;;;2.95;;
34060;SDS011;20336;-33.424;-70.638;2023-08-20T13:13:24;4.32;;;2.35;;
34060;SDS011;20336;-33.424;-70.638;2023-08-20T13:15:51;3.22;;;2.47;;
34060;SDS011;20336;-33.424;-70.638;2023-08-20T13:18:19;3.42;;;2.20;;
34060;SDS011;20336;-33.424;-70.638;2023-08-20T13:20:51;3.80;;;2.40;;
34060;SDS011;20336;-33.424;-70.638;2023-08-20T13:23:18;6.30;;;2.20;;
34060;SDS011;20336;-33.424;-70.638;2023-08-20T13:25:44;2.55;;;1.83;;
34060;SDS011;20336;-33.424;-70.638;2023-08-20T13:28:11;1.63;;;1.27;;
34060;SDS011;20336;-33.424;-70.638;2023-08-20T13:30:38;2.05;;;1.20;;
34060;SDS011;20336;-33.424;-70.638;2023-08-20T13:33:05;1.35;;;1.05;;
34060;SDS011;20336;-33.424;-70.638;2023-08-20T13:35:32;2.47;;;0.90;;
34060;SDS011;20336;-33.424;-70.638;2023-08-20T13:37:59;3.53;;;0.80;;
34060;SDS011;20336;-33.424;-70.638;2023-08-20T13:40:26;1.23;;;0.90;;
34060;SDS011;20336;-33.424;-70.638;2023-08-20T13:42:53;5.07;;;1.60;;
34060;SDS011;20336;-33.424;-70.638;2023-08-20T13:45:20;2.80;;;1.60;;
34060;SDS011;20336;-33.424;-70.638;2023-08-20T13:47:47;6.68;;;3.60;;
34060;SDS011;20336;-33.424;-70.638;2023-08-20T13:50:14;5.32;;;3.05;;
34060;SDS011;20336;-33.424;-70.638;2023-08-20T13:52:41;10.77;;;4.93;;
34060;SDS011;20336;-33.424;-70.638;2023-08-20T13:55:08;6.43;;;3.92;;
34060;SDS011;20336;-33.424;-70.638;2023-08-20T13:57:35;10.63;;;6.95;;
34060;SDS011;20336;-33.424;-70.638;2023-08-20T14:00:02;14.02;;;8.82;;
34060;SDS011;20336;-33.424;-70.638;2023-08-20T14:02:34;13.90;;;9.65;;
34060;SDS011;20336;-33.424;-70.638;2023-08-20T14:05:02;15.40;;;9.70;;
34060;SDS011;20336;-33.424;-70.638;2023-08-20T14:07:29;17.00;;;11.55;;
34060;SDS011;20336;-33.424;-70.638;2023-08-20T14:09:58;16.92;;;11.02;;
34060;SDS011;20336;-33.424;-70.638;2023-08-20T14:12:25;15.20;;;10.07;;
34060;SDS011;20336;-33.424;-70.638;2023-08-20T14:14:52;13.32;;;9.23;;
34060;SDS011;20336;-33.424;-70.638;2023-08-20T14:17:18;13.48;;;9.00;;
34060;SDS011;20336;-33.424;-70.638;2023-08-20T14:19:45;15.25;;;10.65;;
34060;SDS011;20336;-33.424;-70.638;2023-08-20T14:22:12;15.90;;;11.20;;
34060;SDS011;20336;-33.424;-70.638;2023-08-20T14:24:39;15.70;;;11.35;;
34060;SDS011;20336;-33.424;-70.638;2023-08-20T14:27:06;17.00;;;10.60;;
34060;SDS011;20336;-33.424;-70.638;2023-08-20T14:29:36;18.15;;;11.70;;